Time;durP1;ratioP1;P1;durP2;ratioP2;P2;SDS_P1;SDS_P2;PMS_P1;PMS_P2;Temp;Humidity;BMP_temperature;BMP_pressure;BME280_temperature;BME280_humidity;BME280_pressure;Samples;Min_cycle;Max_cycle;Signal;HPM_P1;HPM_P2
2024/02/12 00:01:58;;;;;;;6.87;6.13;;;6.50;99.90;;;;;;5065767;28;20437;-63
2024/02/12 00:04:28;;;;;;;5.57;5.07;;;6.50;99.90;;;;;;5065423;28;20445;-63
2024/02/12 00:06:57;;;;;;;6.07;5.47;;;6.50;99.90;;;;;;5059803;28;20461;-63
2024/02/12 00:09:23;;;;;;;8.33;6.63;;;6.60;99.90;;;;;;5059571;28;20469;-64
2024/02/12 00:11:50;;;;;;;11.97;7.17;;;6.60;99.90;;;;;;5066652;28;20417;-63
2024/02/12 00:14:17;;;;;;;7.67;6.73;;;6.70;99.90;;;;;;5062637;28;20421;-63
2024/02/12 00:16:43;;;;;;;8.13;5.63;;;6.70;99.90;;;;;;5062712;28;20499;-64
2024/02/12 00:19:08;;;;;;;7.37;6.57;;;6.70;99.90;;;;;;5060612;28;20519;-64
2024/02/12 00:21:35;;;;;;;7.67;5.87;;;6.80;99.90;;;;;;5060165;28;20773;-64
2024/02/12 00:24:00;;;;;;;6.27;5.60;;;6.70;99.90;;;;;;5059716;28;20192;-63
2024/02/12 00:26:26;;;;;;;6.67;5.60;;;6.70;99.90;;;;;;5062903;28;20417;-62
2024/02/12 00:28:54;;;;;;;6.87;5.10;;;6.70;99.90;;;;;;5070974;28;20199;-62
2024/02/12 00:31:20;;;;;;;5.60;4.60;;;6.60;99.90;;;;;;5070936;28;20181;-62
2024/02/12 00:33:48;;;;;;;6.93;4.90;;;6.60;99.90;;;;;;5071060;28;20494;-64
2024/02/12 00:36:15;;;;;;;4.90;4.40;;;6.60;99.90;;;;;;5070313;28;20486;-62
2024/02/12 00:38:42;;;;;;;6.33;4.00;;;6.60;99.90;;;;;;5066408;28;20447;-63
2024/02/12 00:41:12;;;;;;;4.67;3.70;;;6.60;99.90;;;;;;5065171;28;20471;-62
2024/02/12 00:43:37;;;;;;;6.23;4.27;;;6.60;99.90;;;;;;5063312;28;20482;-63
2024/02/12 00:46:03;;;;;;;6.17;5.57;;;6.70;99.90;;;;;;5072721;28;21000;-63
2024/02/12 00:48:31;;;;;;;5.97;5.37;;;6.70;99.90;;;;;;5070362;28;20206;-63
2024/02/12 00:50:57;;;;;;;5.10;4.30;;;6.70;99.90;;;;;;5062875;28;20183;-64
2024/02/12 00:53:24;;;;;;;5.00;4.50;;;6.70;99.90;;;;;;5074503;28;20563;-63
2024/02/12 00:55:49;;;;;;;7.23;5.37;;;6.70;99.90;;;;;;5066312;28;20179;-63
2024/02/12 00:58:15;;;;;;;4.90;4.27;;;6.80;99.90;;;;;;5071916;28;20455;-61
2024/02/12 01:00:41;;;;;;;4.60;4.13;;;6.70;99.90;;;;;;5062599;28;20264;-63
2024/02/12 01:03:07;;;;;;;4.30;3.90;;;6.70;99.90;;;;;;5067162;28;20171;-63
2024/02/12 01:05:33;;;;;;;5.00;4.40;;;6.70;99.90;;;;;;5065872;28;20439;-63
2024/02/12 01:07:58;;;;;;;5.30;4.60;;;6.70;99.90;;;;;;5065831;28;20290;-61
2024/02/12 01:10:24;;;;;;;5.30;4.80;;;6.80;99.90;;;;;;5062702;28;20182;-61
2024/02/12 01:12:50;;;;;;;4.60;4.17;;;6.80;99.90;;;;;;5062700;28;20639;-63
2024/02/12 01:15:16;;;;;;;5.40;4.07;;;6.80;99.90;;;;;;5064571;28;20506;-63
2024/02/12 01:17:41;;;;;;;4.07;3.73;;;6.80;99.90;;;;;;5065698;28;20210;-63
2024/02/12 01:20:08;;;;;;;3.90;3.50;;;6.70;99.90;;;;;;5065715;28;20521;-63
2024/02/12 01:22:34;;;;;;;3.50;3.20;;;6.80;99.90;;;;;;5074037;28;20554;-63
2024/02/12 01:24:59;;;;;;;4.03;3.57;;;6.70;99.90;;;;;;5074080;28;20412;-63
2024/02/12 01:27:25;;;;;;;4.50;3.90;;;6.70;99.90;;;;;;5073795;28;20684;-63
2024/02/12 01:29:51;;;;;;;4.40;3.70;;;6.80;99.90;;;;;;5073703;28;20185;-63
2024/02/12 01:32:17;;;;;;;4.47;3.07;;;6.90;99.90;;;;;;5062951;28;20508;-62
2024/02/12 01:34:45;;;;;;;4.43;3.17;;;6.90;99.90;;;;;;5065257;28;20226;-63
2024/02/12 01:37:11;;;;;;;3.67;3.13;;;6.80;99.90;;;;;;5065128;28;20227;-63
2024/02/12 01:39:37;;;;;;;3.07;2.77;;;6.80;99.90;;;;;;5065518;28;20429;-64
2024/02/12 01:42:12;;;;;;;4.50;3.10;;;6.80;99.90;;;;;;5064889;28;20586;-64
2024/02/12 01:45:02;;;;;;;3.40;3.10;;;6.70;99.90;;;;;;5061857;28;20596;-63
2024/02/12 01:47:32;;;;;;;3.33;2.97;;;6.80;99.90;;;;;;5059022;28;20468;-63
2024/02/12 01:49:57;;;;;;;5.10;3.93;;;6.80;99.90;;;;;;5065416;28;20429;-63
2024/02/12 01:52:26;;;;;;;5.17;3.43;;;6.70;99.90;;;;;;5064564;28;20432;-63
2024/02/12 01:54:53;;;;;;;3.27;2.97;;;6.80;99.90;;;;;;5065106;28;20257;-63
2024/02/12 01:57:19;;;;;;;3.43;3.13;;;6.70;99.90;;;;;;5062408;28;20444;-61
2024/02/12 01:59:45;;;;;;;4.00;3.30;;;6.70;99.90;;;;;;5061552;28;20427;-62
2024/02/12 02:02:14;;;;;;;5.80;3.40;;;6.80;99.90;;;;;;5062745;28;20457;-62
2024/02/12 02:04:41;;;;;;;4.27;3.97;;;6.80;99.90;;;;;;5070984;28;20275;-62
2024/02/12 02:07:16;;;;;;;3.90;3.47;;;6.80;99.90;;;;;;5063836;28;20525;-62
2024/02/12 02:09:42;;;;;;;4.93;3.80;;;6.70;99.90;;;;;;5061418;28;20497;-61
2024/02/12 02:12:09;;;;;;;3.57;3.23;;;6.70;99.90;;;;;;5062023;28;20448;-62
2024/02/12 02:14:35;;;;;;;5.00;4.17;;;6.70;99.90;;;;;;5064675;28;20420;-61
2024/02/12 02:17:00;;;;;;;4.23;3.83;;;6.80;99.90;;;;;;5064798;28;20413;-63
2024/02/12 02:19:26;;;;;;;4.73;4.20;;;6.80;99.90;;;;;;5072763;28;20472;-62
2024/02/12 02:21:52;;;;;;;4.87;3.60;;;6.70;99.90;;;;;;5070951;28;20187;-62
2024/02/12 02:24:18;;;;;;;5.10;4.23;;;6.70;99.90;;;;;;5072703;28;20196;-63
2024/02/12 02:26:44;;;;;;;4.73;3.87;;;6.70;99.90;;;;;;5064486;28;20455;-62
2024/02/12 02:29:12;;;;;;;5.47;4.83;;;6.80;99.90;;;;;;5064397;28;20220;-62
2024/02/12 02:31:38;;;;;;;4.10;3.70;;;6.70;99.90;;;;;;5064684;28;20418;-62
2024/02/12 02:34:04;;;;;;;5.17;4.30;;;6.70;99.90;;;;;;5064733;28;20463;-61
2024/02/12 02:36:29;;;;;;;4.90;4.43;;;6.70;99.90;;;;;;5071028;28;20515;-62
2024/02/12 02:39:01;;;;;;;5.30;4.80;;;6.70;99.90;;;;;;5064252;28;20857;-61
2024/02/12 02:41:27;;;;;;;4.80;4.20;;;6.70;99.90;;;;;;5060858;28;20260;-62
2024/02/12 02:43:53;;;;;;;6.63;4.90;;;6.80;99.90;;;;;;5066737;28;20936;-63
2024/02/12 02:46:28;;;;;;;6.30;4.87;;;6.80;99.90;;;;;;5061121;28;20512;-63
2024/02/12 02:48:55;;;;;;;5.47;4.30;;;6.80;99.90;;;;;;5060539;28;20211;-64
2024/02/12 02:51:28;;;;;;;5.87;4.83;;;6.80;99.90;;;;;;5062725;28;20418;-63
2024/02/12 02:53:57;;;;;;;4.67;4.03;;;6.80;99.90;;;;;;5064560;28;20418;-63
2024/02/12 02:56:23;;;;;;;5.90;4.50;;;6.80;99.90;;;;;;5061492;28;20417;-62
2024/02/12 02:58:50;;;;;;;4.60;4.13;;;6.80;99.90;;;;;;5066017;28;20837;-63
2024/02/12 03:01:19;;;;;;;6.23;4.50;;;6.80;99.90;;;;;;5055551;28;20422;-63
2024/02/12 03:03:50;;;;;;;8.60;4.60;;;6.80;99.90;;;;;;5069728;28;20433;-62
2024/02/12 03:06:16;;;;;;;4.20;3.67;;;6.80;99.90;;;;;;5061999;28;20785;-63
2024/02/12 03:08:42;;;;;;;7.43;4.40;;;6.80;99.90;;;;;;5060065;28;20456;-63
2024/02/12 03:11:08;;;;;;;5.00;4.50;;;6.80;99.90;;;;;;5060474;28;20462;-63
2024/02/12 03:13:36;;;;;;;5.90;5.20;;;6.80;99.90;;;;;;5071830;28;20185;-63
2024/02/12 03:16:02;;;;;;;5.80;5.17;;;6.80;99.90;;;;;;5072120;28;20839;-63
2024/02/12 03:18:28;;;;;;;5.27;4.67;;;6.80;99.90;;;;;;5069737;28;20464;-63
2024/02/12 03:20:54;;;;;;;5.80;5.27;;;6.80;99.90;;;;;;5063507;28;20187;-63
2024/02/12 03:23:21;;;;;;;6.40;5.17;;;6.80;99.90;;;;;;5061325;28;20465;-63
2024/02/12 03:25:47;;;;;;;7.10;5.10;;;6.80;99.90;;;;;;5059971;28;20493;-63
2024/02/12 03:28:12;;;;;;;7.97;5.87;;;6.90;99.90;;;;;;5068782;28;20465;-64
2024/02/12 03:30:39;;;;;;;5.60;5.10;;;6.80;99.90;;;;;;5071573;28;20183;-63
2024/02/12 03:33:05;;;;;;;6.20;4.33;;;6.80;99.90;;;;;;5061715;28;20541;-63
2024/02/12 03:35:30;;;;;;;5.70;5.17;;;6.80;99.90;;;;;;5063111;28;20424;-62
2024/02/12 03:37:57;;;;;;;7.33;5.77;;;6.80;99.90;;;;;;5063338;28;20502;-63
2024/02/12 03:40:27;;;;;;;7.53;6.17;;;6.80;99.90;;;;;;5071777;28;20183;-64
2024/02/12 03:42:53;;;;;;;9.23;6.77;;;6.80;99.90;;;;;;5071668;28;20421;-62
2024/02/12 03:45:19;;;;;;;7.20;5.70;;;6.80;99.90;;;;;;5071532;28;20425;-63
2024/02/12 03:47:47;;;;;;;8.27;5.90;;;6.90;99.90;;;;;;5064779;28;20473;-63
2024/02/12 04:01:21;;;;;;;8.03;5.40;;;6.90;99.90;;;;;;5061987;28;20436;-62
2024/02/12 04:03:49;;;;;;;8.30;6.60;;;6.90;99.90;;;;;;5068459;28;20497;-63
2024/02/12 04:06:15;;;;;;;8.30;7.20;;;6.90;99.90;;;;;;5062217;28;20513;-62
2024/02/12 04:08:42;;;;;;;10.10;5.73;;;6.90;99.90;;;;;;5060661;28;20459;-62
2024/02/12 04:11:11;;;;;;;9.30;6.30;;;7.00;99.90;;;;;;5072559;28;20824;-62
2024/02/12 04:13:37;;;;;;;9.07;7.57;;;6.90;99.90;;;;;;5066106;28;20416;-62
2024/02/12 04:16:06;;;;;;;9.20;7.37;;;6.90;99.90;;;;;;5066375;28;20446;-61
2024/02/12 04:18:32;;;;;;;11.13;6.50;;;6.90;99.90;;;;;;5068877;28;20455;-62
2024/02/12 04:20:59;;;;;;;8.53;7.47;;;6.90;99.90;;;;;;5069166;28;20426;-62
2024/02/12 04:23:25;;;;;;;11.17;7.30;;;6.90;99.90;;;;;;5067181;28;20773;-63
2024/02/12 04:25:51;;;;;;;9.47;7.27;;;6.90;99.90;;;;;;5065918;28;20936;-62
2024/02/12 04:28:18;;;;;;;9.70;7.20;;;7.00;99.90;;;;;;5072286;28;20470;-62
2024/02/12 04:30:44;;;;;;;8.83;7.37;;;7.00;99.90;;;;;;5065717;28;20222;-62
2024/02/12 04:33:11;;;;;;;11.43;7.20;;;7.00;99.90;;;;;;5065628;28;20505;-60
2024/02/12 04:35:37;;;;;;;11.60;7.97;;;7.00;99.90;;;;;;5069581;28;20426;-61
2024/02/12 04:38:03;;;;;;;12.17;7.97;;;7.00;99.90;;;;;;5069499;28;20463;-62
2024/02/12 04:40:29;;;;;;;10.17;7.83;;;7.00;99.90;;;;;;5066833;28;20200;-62
2024/02/12 04:42:57;;;;;;;13.57;9.80;;;7.00;99.90;;;;;;5066285;28;20426;-64
2024/02/12 04:45:24;;;;;;;11.87;9.20;;;7.00;99.90;;;;;;5073987;28;20441;-63
2024/02/12 04:47:50;;;;;;;12.53;8.70;;;7.00;99.90;;;;;;5067402;28;20465;-63
2024/02/12 04:50:16;;;;;;;16.10;8.27;;;7.00;99.90;;;;;;5076552;28;21027;-63
2024/02/12 04:52:41;;;;;;;11.47;8.67;;;7.10;99.90;;;;;;5077372;28;20506;-61
2024/02/12 04:55:10;;;;;;;15.37;9.87;;;7.10;99.90;;;;;;5077519;28;20179;-62
2024/02/12 04:57:37;;;;;;;14.77;9.57;;;7.10;99.90;;;;;;5068892;28;20199;-62
2024/02/12 05:00:03;;;;;;;14.53;9.47;;;7.00;99.90;;;;;;5071074;28;21132;-63
2024/02/12 05:02:31;;;;;;;13.60;8.60;;;7.10;99.90;;;;;;5068621;28;20434;-62
2024/02/12 05:05:00;;;;;;;9.73;7.73;;;7.10;99.90;;;;;;5069484;28;20426;-63
2024/02/12 05:07:27;;;;;;;12.60;8.90;;;7.10;99.90;;;;;;5068860;28;20841;-63
2024/02/12 05:09:53;;;;;;;12.30;8.30;;;7.10;99.90;;;;;;5077046;28;20910;-62
2024/02/12 05:12:19;;;;;;;10.40;7.60;;;7.20;99.90;;;;;;5077090;28;20409;-63
2024/02/12 05:14:44;;;;;;;11.43;7.40;;;7.20;99.90;;;;;;5077186;28;20948;-63
2024/02/12 05:17:11;;;;;;;11.60;7.90;;;7.20;99.90;;;;;;5066862;28;20205;-63
2024/02/12 05:22:34;;;;;;;13.90;9.33;;;7.20;99.90;;;;;;5062901;28;20464;-63
2024/02/12 05:25:00;;;;;;;15.10;9.53;;;7.20;99.90;;;;;;5065585;28;20434;-63
2024/02/12 05:27:27;;;;;;;12.97;9.03;;;7.20;99.90;;;;;;5063368;28;20469;-63
2024/02/12 05:29:54;;;;;;;14.30;7.33;;;7.20;99.90;;;;;;5062234;28;20423;-63
2024/02/12 05:32:19;;;;;;;12.90;8.77;;;7.20;99.90;;;;;;5066721;28;20797;-63
2024/02/12 05:34:48;;;;;;;16.47;9.67;;;7.30;99.90;;;;;;5065631;28;20427;-64
2024/02/12 05:37:14;;;;;;;12.47;10.20;;;7.20;99.90;;;;;;5065329;28;20567;-60
2024/02/12 05:39:40;;;;;;;15.23;9.10;;;7.30;99.90;;;;;;5070212;28;20430;-63
2024/02/12 05:42:07;;;;;;;15.17;9.00;;;7.30;99.90;;;;;;5063263;28;20487;-62
2024/02/12 05:44:35;;;;;;;14.90;8.97;;;7.30;99.90;;;;;;5070104;28;20425;-62
2024/02/12 05:47:02;;;;;;;16.83;9.57;;;7.30;99.90;;;;;;5061669;28;20492;-62
2024/02/12 05:49:28;;;;;;;16.73;10.23;;;7.30;99.90;;;;;;5069889;28;20455;-61
2024/02/12 05:51:55;;;;;;;15.97;11.00;;;7.30;99.90;;;;;;5073223;28;20427;-62
2024/02/12 05:54:20;;;;;;;10.63;7.73;;;7.30;99.90;;;;;;5073228;28;20418;-62
2024/02/12 05:56:47;;;;;;;19.07;10.97;;;7.30;99.90;;;;;;5073344;28;20922;-62
2024/02/12 05:59:12;;;;;;;13.83;9.67;;;7.30;99.90;;;;;;5064863;28;20203;-62
2024/02/12 06:01:38;;;;;;;16.10;10.80;;;7.30;99.90;;;;;;5061585;28;20939;-62
2024/02/12 06:04:04;;;;;;;18.30;11.90;;;7.30;99.90;;;;;;5061563;28;20505;-62
2024/02/12 06:06:30;;;;;;;17.43;10.97;;;7.30;99.90;;;;;;5066898;28;20534;-61
2024/02/12 06:08:55;;;;;;;11.87;10.67;;;7.30;99.90;;;;;;5064623;28;20235;-62
2024/02/12 06:11:21;;;;;;;14.90;9.60;;;7.30;99.90;;;;;;5063707;28;20191;-62
2024/02/12 06:13:47;;;;;;;16.90;9.97;;;7.30;99.90;;;;;;5061466;28;20224;-62
2024/02/12 06:16:13;;;;;;;19.07;10.07;;;7.30;99.90;;;;;;5069129;28;20495;-62
2024/02/12 06:18:39;;;;;;;17.63;11.30;;;7.30;99.90;;;;;;5064549;28;20283;-62
2024/02/12 06:21:05;;;;;;;16.53;10.00;;;7.40;99.90;;;;;;5072785;28;20432;-62
2024/02/12 06:23:31;;;;;;;19.87;11.00;;;7.40;99.90;;;;;;5070808;28;20441;-62
2024/02/12 06:25:58;;;;;;;19.30;11.80;;;7.40;99.90;;;;;;5072708;28;20850;-62
2024/02/12 06:28:23;;;;;;;20.13;11.03;;;7.40;99.90;;;;;;5064485;28;20203;-62
2024/02/12 06:30:49;;;;;;;18.90;10.20;;;7.40;99.90;;;;;;5064459;28;20507;-62
2024/02/12 06:33:15;;;;;;;18.20;11.30;;;7.40;99.90;;;;;;5063293;28;20208;-62
2024/02/12 06:35:41;;;;;;;18.13;10.83;;;7.40;99.90;;;;;;5060853;28;20181;-61
2024/02/12 06:38:06;;;;;;;23.60;13.13;;;7.40;99.90;;;;;;5065895;28;20203;-61
2024/02/12 06:40:32;;;;;;;19.70;11.70;;;7.40;99.90;;;;;;5063905;28;20189;-62
2024/02/12 06:43:03;;;;;;;20.40;11.20;;;7.40;99.90;;;;;;5064093;28;20180;-62
2024/02/12 06:45:28;;;;;;;18.33;11.00;;;7.50;99.90;;;;;;5062859;28;20199;-61
2024/02/12 06:47:55;;;;;;;19.63;12.20;;;7.50;99.90;;;;;;5061129;28;20923;-62
2024/02/12 06:50:20;;;;;;;23.40;11.60;;;7.50;99.90;;;;;;5066150;28;20184;-61
2024/02/12 06:52:47;;;;;;;26.13;12.20;;;7.60;99.90;;;;;;5072141;28;20445;-62
2024/02/12 06:55:15;;;;;;;25.53;14.27;;;7.60;99.90;;;;;;5072338;28;20525;-62
2024/02/12 06:57:42;;;;;;;22.47;11.67;;;7.60;99.90;;;;;;5068709;28;20435;-62
2024/02/12 07:00:08;;;;;;;20.27;11.70;;;7.60;99.90;;;;;;5060317;28;20424;-63
2024/02/12 07:02:35;;;;;;;20.80;11.00;;;7.70;99.90;;;;;;5060232;28;20514;-62
2024/02/12 07:05:03;;;;;;;23.43;10.50;;;7.70;99.90;;;;;;5066101;28;20563;-62
2024/02/12 07:07:30;;;;;;;22.03;11.60;;;7.70;99.90;;;;;;5069962;28;20468;-62
2024/02/12 07:09:57;;;;;;;15.50;9.37;;;7.60;99.90;;;;;;5063679;28;20422;-62
2024/02/12 07:12:22;;;;;;;15.63;10.57;;;7.70;99.90;;;;;;5062599;28;20469;-62
2024/02/12 07:14:48;;;;;;;17.47;9.67;;;7.70;99.90;;;;;;5060010;28;20518;-62
2024/02/12 07:17:13;;;;;;;18.17;10.83;;;7.70;99.90;;;;;;5059932;28;20277;-62
2024/02/12 07:19:47;;;;;;;19.03;10.10;;;7.70;99.90;;;;;;5062672;28;20199;-61
2024/02/12 07:22:12;;;;;;;16.63;9.50;;;7.70;99.90;;;;;;5070145;28;20264;-62
2024/02/12 07:24:38;;;;;;;17.60;10.97;;;7.70;99.90;;;;;;5060533;28;20896;-62
2024/02/12 07:27:05;;;;;;;19.73;11.40;;;7.70;99.90;;;;;;5065741;28;20462;-62
2024/02/12 07:29:31;;;;;;;13.77;8.40;;;7.60;99.90;;;;;;5071813;28;20202;-62
2024/02/12 07:31:56;;;;;;;19.37;8.97;;;7.70;99.90;;;;;;5071465;28;20419;-62
2024/02/12 07:34:22;;;;;;;16.60;9.93;;;7.70;99.90;;;;;;5062677;28;20332;-63
2024/02/12 07:36:48;;;;;;;16.60;10.33;;;7.80;99.90;;;;;;5059808;28;20191;-62
2024/02/12 07:39:16;;;;;;;19.20;9.77;;;7.80;99.90;;;;;;5065362;28;20182;-62
2024/02/12 07:41:43;;;;;;;16.40;10.70;;;7.70;99.90;;;;;;5071164;28;20186;-61
2024/02/12 07:44:10;;;;;;;17.70;10.73;;;7.80;99.90;;;;;;5070775;28;20420;-62
2024/02/12 07:46:38;;;;;;;19.60;10.90;;;7.80;99.90;;;;;;5063035;28;20855;-62
2024/02/12 07:49:05;;;;;;;22.80;9.40;;;7.80;99.90;;;;;;5071013;28;20497;-62
2024/02/12 07:51:32;;;;;;;20.73;9.20;;;7.80;99.90;;;;;;5067580;28;20432;-62
2024/02/12 07:53:57;;;;;;;15.97;10.60;;;7.80;99.90;;;;;;5066181;28;20437;-64
2024/02/12 07:56:23;;;;;;;15.70;9.10;;;7.80;99.90;;;;;;5059571;28;20486;-63
2024/02/12 07:58:49;;;;;;;14.33;9.43;;;7.90;99.90;;;;;;5062801;28;20619;-63
2024/02/12 08:01:16;;;;;;;15.50;9.37;;;7.90;99.90;;;;;;5062817;28;20292;-63
2024/02/12 08:03:42;;;;;;;17.90;10.70;;;7.90;99.90;;;;;;5060055;28;20427;-62
2024/02/12 08:06:09;;;;;;;14.10;7.80;;;7.90;99.90;;;;;;5059661;28;20424;-62
2024/02/12 08:08:34;;;;;;;18.30;10.13;;;7.90;99.90;;;;;;5065920;28;20473;-62
2024/02/12 08:11:00;;;;;;;14.03;9.13;;;7.90;99.90;;;;;;5059384;28;20515;-61
2024/02/12 08:13:26;;;;;;;14.33;8.63;;;7.90;99.90;;;;;;5059450;28;20636;-63
2024/02/12 08:15:51;;;;;;;14.17;8.50;;;8.00;99.90;;;;;;5062714;28;20197;-62
2024/02/12 08:18:17;;;;;;;14.67;9.33;;;8.10;99.90;;;;;;5058380;28;20257;-62
2024/02/12 08:20:42;;;;;;;14.13;9.83;;;8.10;99.90;;;;;;5068608;28;20181;-62
2024/02/12 08:23:08;;;;;;;18.40;9.40;;;8.00;99.90;;;;;;5058012;28;20658;-63
2024/02/12 08:25:33;;;;;;;15.37;8.70;;;8.10;99.90;;;;;;5065321;28;20185;-62
2024/02/12 08:27:59;;;;;;;11.17;8.03;;;8.10;99.90;;;;;;5077456;28;20309;-62
2024/02/12 08:30:25;;;;;;;14.67;8.80;;;8.00;99.90;;;;;;5070503;28;20178;-62
2024/02/12 08:32:50;;;;;;;15.93;8.53;;;8.00;99.90;;;;;;5058892;28;20167;-62
2024/02/12 08:35:16;;;;;;;12.47;8.00;;;8.10;99.90;;;;;;5066176;28;20180;-63
2024/02/12 08:37:42;;;;;;;13.70;7.97;;;8.10;99.90;;;;;;5058534;28;20208;-62
2024/02/12 08:40:10;;;;;;;14.37;9.47;;;8.10;99.90;;;;;;5063491;28;20171;-62
2024/02/12 08:42:41;;;;;;;19.10;9.77;;;8.00;99.90;;;;;;5062122;28;20550;-62
2024/02/12 08:45:09;;;;;;;12.87;8.63;;;7.90;99.90;;;;;;5062179;28;20423;-62
2024/02/12 08:47:35;;;;;;;12.20;7.73;;;8.10;99.90;;;;;;5055483;28;20464;-63
2024/02/12 08:50:03;;;;;;;15.17;9.40;;;8.00;99.90;;;;;;5062470;28;20413;-65
2024/02/12 08:52:31;;;;;;;13.50;9.33;;;8.10;99.90;;;;;;5065773;28;20180;-63
2024/02/12 08:54:59;;;;;;;13.03;9.13;;;8.00;99.90;;;;;;5062381;28;20638;-67
2024/02/12 08:57:27;;;;;;;11.53;9.13;;;8.10;99.90;;;;;;5065437;28;20431;-64
2024/02/12 08:59:54;;;;;;;13.30;8.90;;;8.10;99.90;;;;;;5066679;28;20452;-62
2024/02/12 09:02:21;;;;;;;13.47;8.70;;;8.10;99.90;;;;;;5074767;28;20430;-64
2024/02/12 09:04:48;;;;;;;14.43;8.60;;;8.10;99.90;;;;;;5066826;28;20420;-66
2024/02/12 09:07:13;;;;;;;13.43;9.50;;;8.10;99.90;;;;;;5057013;28;21042;-62
2024/02/12 09:09:40;;;;;;;12.50;8.17;;;8.20;99.90;;;;;;5072901;28;20461;-63
2024/02/12 09:12:06;;;;;;;12.40;7.37;;;8.00;99.90;;;;;;5057094;28;20236;-61
2024/02/12 09:14:31;;;;;;;15.77;7.60;;;8.00;99.90;;;;;;5066369;28;20421;-61
2024/02/12 09:16:58;;;;;;;11.13;7.20;;;8.00;99.90;;;;;;5072933;28;20794;-62
2024/02/12 09:19:23;;;;;;;8.40;6.70;;;8.10;99.90;;;;;;5066229;28;20816;-61
2024/02/12 09:21:49;;;;;;;14.50;9.13;;;8.10;99.90;;;;;;5065481;28;20421;-62
2024/02/12 09:24:16;;;;;;;11.70;6.97;;;8.00;99.90;;;;;;5064001;28;20651;-63
2024/02/12 09:26:41;;;;;;;9.50;7.07;;;8.10;99.90;;;;;;5074283;28;20207;-63
2024/02/12 09:29:07;;;;;;;10.40;6.90;;;8.00;99.90;;;;;;5055977;28;20444;-63
2024/02/12 09:31:33;;;;;;;8.50;6.93;;;8.00;99.90;;;;;;5073692;28;20181;-63
2024/02/12 09:34:01;;;;;;;11.50;7.00;;;8.00;99.90;;;;;;5073756;28;20204;-63
2024/02/12 09:36:27;;;;;;;9.60;6.23;;;8.00;99.90;;;;;;5065936;28;20447;-63
2024/02/12 09:38:53;;;;;;;9.97;5.23;;;8.00;99.90;;;;;;5062224;28;20577;-63
2024/02/12 09:41:28;;;;;;;9.33;6.10;;;8.10;99.90;;;;;;5070575;28;20434;-63
2024/02/12 09:43:55;;;;;;;10.63;6.27;;;8.10;99.90;;;;;;5061974;28;20188;-63
2024/02/12 09:46:21;;;;;;;12.33;7.90;;;8.20;99.90;;;;;;5062120;28;20425;-63
2024/02/12 09:48:48;;;;;;;9.53;6.90;;;8.20;99.90;;;;;;5064315;28;20482;-63
2024/02/12 09:51:15;;;;;;;10.17;6.00;;;8.10;99.90;;;;;;5073742;28;21237;-61
2024/02/12 09:53:43;;;;;;;9.37;5.90;;;8.10;99.90;;;;;;5071084;28;20519;-63
2024/02/12 09:56:11;;;;;;;8.83;5.83;;;8.10;99.90;;;;;;5065040;28;20426;-65
2024/02/12 09:58:37;;;;;;;7.33;5.30;;;8.00;99.90;;;;;;5063724;28;20807;-62
2024/02/12 10:01:05;;;;;;;8.10;6.00;;;8.10;99.90;;;;;;5061644;28;20429;-61
2024/02/12 10:03:32;;;;;;;7.80;4.93;;;8.10;99.90;;;;;;5061893;28;20415;-61
2024/02/12 10:05:58;;;;;;;7.07;5.30;;;8.10;99.90;;;;;;5065439;28;20419;-61
2024/02/12 10:08:25;;;;;;;13.43;5.40;;;8.10;99.90;;;;;;5065396;28;20561;-61
2024/02/12 10:10:52;;;;;;;6.23;5.07;;;8.20;99.90;;;;;;5069520;28;20633;-62
2024/02/12 10:13:19;;;;;;;6.60;5.30;;;8.10;99.90;;;;;;5065122;28;20424;-62
2024/02/12 10:15:46;;;;;;;7.50;5.23;;;8.20;99.90;;;;;;5062671;28;20420;-62
2024/02/12 10:18:15;;;;;;;7.93;4.50;;;8.20;99.90;;;;;;5061061;28;20931;-62
2024/02/12 10:20:42;;;;;;;8.73;5.47;;;8.30;99.90;;;;;;5062629;28;20433;-62
2024/02/12 10:23:09;;;;;;;7.17;4.90;;;8.30;99.90;;;;;;5072738;28;20439;-63
2024/02/12 10:25:47;;;;;;;8.30;5.93;;;8.50;99.90;;;;;;5064114;28;20428;-63
2024/02/12 10:28:13;;;;;;;8.60;5.43;;;8.70;99.90;;;;;;5070998;28;20529;-63
2024/02/12 10:30:40;;;;;;;7.23;5.30;;;8.90;99.90;;;;;;5063111;28;20425;-63
2024/02/12 10:33:08;;;;;;;6.97;5.47;;;8.80;99.90;;;;;;5060374;28;20931;-64
2024/02/12 10:35:45;;;;;;;7.97;5.80;;;8.70;99.90;;;;;;5061258;28;20424;-63
2024/02/12 10:38:13;;;;;;;9.03;5.17;;;9.00;99.90;;;;;;5072241;28;20514;-63
2024/02/12 10:41:17;;;;;;;7.20;6.50;;;8.80;99.90;;;;;;5071159;28;20795;-64
2024/02/12 10:43:44;;;;;;;11.23;5.77;;;9.00;99.90;;;;;;5036753;28;20795;-63
2024/02/12 10:46:12;;;;;;;7.90;5.30;;;8.90;99.90;;;;;;5065008;28;20939;-63
2024/02/12 10:48:44;;;;;;;7.70;5.20;;;8.80;99.90;;;;;;5061263;28;20463;-63
2024/02/12 10:51:10;;;;;;;8.30;5.30;;;8.80;99.90;;;;;;5071416;28;20415;-64
2024/02/12 10:53:39;;;;;;;6.80;5.37;;;8.80;99.90;;;;;;5065908;28;20809;-63
2024/02/12 10:56:07;;;;;;;11.37;5.93;;;8.80;99.90;;;;;;5067546;28;20460;-62
2024/02/12 10:58:34;;;;;;;8.80;5.00;;;8.80;99.90;;;;;;5060406;28;20445;-63
2024/02/12 11:01:01;;;;;;;9.40;5.10;;;8.70;99.90;;;;;;5072259;28;20420;-63
2024/02/12 11:03:37;;;;;;;11.27;6.20;;;8.80;99.90;;;;;;5072352;28;20849;-63
2024/02/12 11:06:10;;;;;;;7.73;4.47;;;8.90;99.90;;;;;;5059712;28;20427;-63
2024/02/12 11:08:49;;;;;;;8.20;5.57;;;8.80;99.90;;;;;;5065084;28;20470;-62
2024/02/12 11:11:22;;;;;;;8.13;4.60;;;8.80;99.90;;;;;;5064540;28;20432;-63
2024/02/12 11:14:03;;;;;;;5.73;4.60;;;9.00;99.90;;;;;;5063960;28;20846;-61
2024/02/12 11:16:31;;;;;;;9.40;5.63;;;9.00;99.90;;;;;;5064764;28;20466;-62
2024/02/12 11:18:58;;;;;;;8.00;5.43;;;9.10;99.90;;;;;;5063035;28;20433;-62
2024/02/12 11:21:31;;;;;;;6.60;4.60;;;9.30;99.90;;;;;;5064076;28;20432;-61
2024/02/12 11:24:07;;;;;;;7.13;5.10;;;9.40;99.90;;;;;;5060253;28;20496;-63
2024/02/12 11:26:43;;;;;;;8.50;6.23;;;9.40;99.90;;;;;;5068987;28;20423;-63
2024/02/12 11:29:11;;;;;;;7.27;4.97;;;9.40;99.90;;;;;;5060362;28;20448;-60
2024/02/12 11:31:41;;;;;;;7.47;4.60;;;9.40;99.90;;;;;;5060533;28;20831;-62
2024/02/12 11:34:24;;;;;;;5.73;4.23;;;9.40;99.90;;;;;;5063597;28;20895;-62
2024/02/12 11:36:57;;;;;;;7.10;4.63;;;9.20;99.90;;;;;;5061165;28;20423;-63
2024/02/12 11:39:23;;;;;;;8.60;4.77;;;9.10;99.90;;;;;;5069232;28;20419;-64
2024/02/12 11:41:49;;;;;;;8.33;5.43;;;9.00;99.90;;;;;;5063033;28;20428;-65
2024/02/12 11:44:15;;;;;;;6.70;4.77;;;9.00;99.90;;;;;;5069906;28;20312;-61
2024/02/12 11:46:41;;;;;;;7.97;4.73;;;8.90;99.90;;;;;;5062113;28;20174;-61
2024/02/12 11:49:09;;;;;;;6.13;5.53;;;8.90;99.90;;;;;;5064151;28;20452;-60
2024/02/12 11:51:37;;;;;;;9.60;5.70;;;8.90;99.90;;;;;;5063149;28;20179;-61
2024/02/12 11:54:03;;;;;;;10.07;6.37;;;8.90;99.90;;;;;;5061070;28;20422;-61
2024/02/12 11:56:29;;;;;;;7.87;5.90;;;8.80;99.90;;;;;;5070949;28;20421;-62
2024/02/12 11:58:57;;;;;;;6.57;5.00;;;8.90;99.90;;;;;;5060349;28;20521;-62
2024/02/12 12:01:28;;;;;;;6.47;4.90;;;8.90;99.90;;;;;;5059501;28;20182;-63
2024/02/12 12:03:54;;;;;;;7.20;5.03;;;8.90;99.90;;;;;;5062074;28;20420;-65
2024/02/12 12:06:22;;;;;;;9.90;6.57;;;8.90;99.90;;;;;;5062935;28;20424;-61
2024/02/12 12:08:50;;;;;;;7.93;5.67;;;8.90;99.90;;;;;;5062680;28;20813;-64
2024/02/12 12:11:20;;;;;;;12.07;7.37;;;9.00;99.90;;;;;;5069229;28;20506;-64
2024/02/12 12:13:46;;;;;;;17.47;9.03;;;8.90;99.90;;;;;;5060940;28;20835;-64
2024/02/12 12:16:13;;;;;;;11.30;7.53;;;9.00;99.90;;;;;;5059316;28;20453;-65
2024/02/12 12:18:39;;;;;;;8.90;6.00;;;9.20;99.90;;;;;;5059752;28;20248;-63
2024/02/12 12:21:07;;;;;;;8.87;5.87;;;9.10;99.90;;;;;;5062849;28;20416;-63
2024/02/12 12:23:34;;;;;;;13.17;6.70;;;9.40;99.90;;;;;;5066844;28;20609;-65
2024/02/12 12:26:00;;;;;;;6.67;5.53;;;9.40;99.90;;;;;;5069035;28;20412;-69
2024/02/12 12:28:26;;;;;;;8.20;5.60;;;9.40;99.90;;;;;;5063522;28;20464;-63
2024/02/12 12:30:54;;;;;;;11.17;5.90;;;9.50;99.90;;;;;;5063863;28;20175;-66
2024/02/12 12:33:21;;;;;;;7.80;5.77;;;9.30;99.90;;;;;;5066039;28;20177;-63
2024/02/12 12:35:46;;;;;;;11.47;6.20;;;9.20;99.90;;;;;;5071103;28;20432;-63
2024/02/12 12:38:14;;;;;;;8.03;6.23;;;9.20;99.90;;;;;;5074465;28;20443;-63
2024/02/12 12:40:41;;;;;;;8.80;5.83;;;9.00;99.90;;;;;;5074294;28;20227;-63
2024/02/12 12:43:08;;;;;;;7.50;5.67;;;8.90;99.90;;;;;;5062690;28;20725;-63
2024/02/12 12:45:34;;;;;;;8.83;6.67;;;9.00;99.90;;;;;;5073298;28;20422;-64
2024/02/12 12:48:02;;;;;;;8.23;6.90;;;9.00;99.90;;;;;;5073335;28;20467;-64
2024/02/12 12:50:28;;;;;;;9.60;6.30;;;8.90;99.90;;;;;;5069549;28;20436;-63
2024/02/12 12:52:55;;;;;;;12.50;6.60;;;8.90;99.90;;;;;;5073656;28;20421;-64
2024/02/12 12:55:21;;;;;;;41.73;23.27;;;8.90;99.90;;;;;;5074298;28;20415;-67
2024/02/12 12:57:49;;;;;;;32.80;18.17;;;8.90;99.90;;;;;;5073908;28;20930;-63
2024/02/12 13:00:28;;;;;;;9.73;7.70;;;9.00;99.90;;;;;;5074198;28;20178;-65
2024/02/12 13:02:58;;;;;;;11.50;7.60;;;9.10;99.90;;;;;;5074241;28;20435;-68
2024/02/12 13:05:25;;;;;;;7.27;5.33;;;9.60;99.90;;;;;;5074115;28;20416;-63